Terminal Aerodrome Forecast
Issued by NWS

Home | Current Version | Previous Version | Text Only | Print | Product List | Glossary On
Versions: 1 2 3 4 5 6 7 8 9 10 11 12 13 14 15 16 17 18 19 20 21 22 23 24 25
000
FTUS41 KBUF 060908 AAA
TAFJHW
TAF AMD
KJHW 060908Z 0609/0706 13004KT P6SM SCT250
     FM061500 17005KT P6SM BKN120
     FM061700 16006KT 6SM -SHRA VCTS BKN050CB
     FM061900 15007KT 6SM -SHRA BKN040
     FM070200 17006KT 6SM BR VCSH BKN045
     FM070400 17006KT P6SM BKN035
      AMD LTD TO CLD VIS AND WIND=

USA.gov is the U.S. government's official web portal to all federal, state and local government web resources and services.